x

New York Harbor Entrance - 15 Nm Se Of Breezy Point , Ny (44065) Wave Buoy

11:50am - Sat 1st Aug 2015 All times are EDT. -4 hours from GMT.

  • Sig Wave height 2.6ft
  • Swell Direction
  • Peak Period 10s
  • Average Period 6s
  • Wind
    9mph, 11mph gusts
  • Sea Temp 77°f
  • Air Temp 78°f
  • Sea Pressure 1009.5mb
  • New York Harbor Entrance - 15 Nm Se Of Breezy Point , Ny
  • New York Harbor Entrance - 15 Nm Se Of Breezy Point , Ny

More Historic Weather Station data

Upgrade to MSW Pro to gain access to the past 30 days of data for over 8000 Wavebouys and Weather Stations around the globe.

Join Pro

Comparision Forecast

View Surf forecast
   
Sat 08/01 11:50am 2.5ft 10s 6s 9 11 mph 1009.5mb 77f 78f
10:50am 3ft 9s 6s 9 11 mph 1009.2mb 77f 77f
9:50am 3ft 10s 5s 13 16 mph 1009mb 76f 76f
8:50am 3ft 9s 5s 11 13 mph 1009mb 76f 76f
7:50am 3ft 7s 5s 16 18 mph 1008.8mb 76f 75f
6:50am 3ft 7s 5s 16 18 mph 1008.7mb 76f 75f
5:50am 3ft 9s 5s 16 18 mph 1008.4mb 76f 75f
4:50am 2.5ft 8s 6s 16 18 mph 1008.5mb 76f 76f
3:50am 3ft 7s 6s 18 20 mph 1008.8mb 76f 76f
2:50am 3ft 7s 6s 13 16 mph 1009.1mb 76f 76f
1:50am 3.5ft 8s 6s 9 11 mph 1009.5mb 76f 77f
12:50am 3ft 7s 6s 9
mph
1010mb 76f 77f
Fri 07/31 11:50pm 3.5ft 8s 6s 7
mph
1010.2mb 76f 78f
10:50pm 3.5ft 7s 6s 11
mph
1010mb 77f 78f
9:50pm 3.5ft 7s 6s 11 13 mph 1009.6mb 77f 78f
8:50pm 3ft 7s 5s 11 16 mph 1009mb 77f 78f
7:50pm 3ft 7s 5s 11 13 mph 1008.6mb 78f 79f
6:50pm 3ft 7s 5s 13 16 mph 1008.5mb 78f 80f
5:50pm 3ft 7s 6s 13 16 mph 1008.9mb 78f 80f
4:50pm 3ft 7s 6s 13 16 mph 1009.1mb 78f 80f
3:50pm 2.5ft 7s 6s 11 13 mph 1009.5mb 78f 80f
2:50pm 2.5ft 8s 6s 13
mph
1010.2mb 78f 79f
1:50pm 2.5ft 6s 6s 9 11 mph 1010.7mb 78f 78f
12:50pm 2ft 6s 6s 7 9 mph 1011.1mb 78f 78f
11:50am 2ft 10s 6s 7 9 mph 1011.6mb 77f 77f
10:50am 2ft 10s 6s 9 11 mph 1011.6mb 77f 76f
9:50am 2ft 6s 5s 11
mph
1011.4mb 76f 75f
8:50am 2ft 10s 5s 13 16 mph 1011.2mb 76f 75f
7:50am 2ft 10s 5s 9 11 mph 1011.1mb 76f 76f
6:50am 2.5ft 6s 5s 9 11 mph 1010.8mb 76f 75f
5:50am 2.5ft 5s 5s 11 13 mph 1010.4mb 76f 75f
4:50am 2.5ft 5s 5s 11 13 mph 1010.1mb 76f 75f
3:50am 2.5ft 5s 5s 11 13 mph 1009.7mb 75f 74f
2:50am 2.5ft 9s 5s 7 9 mph 1009.7mb 75f 74f
1:50am 2.5ft 10s 5s 7 9 mph 1009.9mb 75f 74f
12:50am 2.5ft 10s 5s 7 9 mph 1010.1mb 76f 74f
Thu 07/30 11:50pm 2.5ft 6s 5s 9 11 mph 1010.2mb 76f 75f
10:50pm 3ft 6s 5s 11 13 mph 1010mb 76f 76f
9:50pm 3.5ft 6s 5s 13 16 mph 1010mb 77f 76f
8:50pm 3.5ft 5s 5s 16 18 mph 1009.6mb 76f 76f
7:50pm 3.5ft 6s 5s 16 18 mph 1009.6mb 76f 76f
6:50pm 4.5ft 5s 5s 11 16 mph 1009.8mb 76f 76f
5:50pm 5ft 5s 5s 18 22 mph 1009.8mb 76f 75f
4:50pm 5ft 5s 5s 22 29 mph 1008.3mb 76f 78f
3:50pm 5ft 5s 5s 27 31 mph 1008.7mb 77f 78f
2:50pm 5ft 5s 5s 27 31 mph 1009.5mb 77f 78f
1:50pm 4.5ft 5s 4s 27 31 mph 1010.2mb 77f 78f
12:50pm 4.5ft 5s 4s 22 27 mph 1011.3mb 77f 78f
11:50am 3.5ft 5s 4s 20 25 mph 1011.8mb 77f 78f
10:50am 3.5ft 5s 4s 18 22 mph 1012mb 76f 77f
9:50am 3.5ft 10s 5s 18 20 mph 1012.2mb 76f 77f
8:50am 3.5ft 9s 5s 16 18 mph 1012.5mb 76f 77f
7:50am 3ft 9s 5s 16 18 mph 1012.7mb 76f 77f
6:50am 3ft 9s 5s 16 18 mph 1012.8mb 76f 77f
5:50am 3ft 9s 5s 13 16 mph 1012.7mb 76f 77f
4:50am 3ft 9s 5s 13 16 mph 1012.8mb 76f 77f
3:50am 3ft 9s 5s 13 18 mph 1012.9mb 76f 77f
2:50am 2.5ft 9s 5s 13 16 mph 1013.4mb 76f 77f
1:50am 2.5ft 9s 5s 16 18 mph 1013.4mb 76f 77f
12:50am 2.5ft 9s 5s 13 16 mph 1013.6mb 76f 78f
Wed 07/29 11:50pm 2.5ft 11s 4s 13 16 mph 1013.4mb 76f 78f
10:50pm 3ft 4s 4s 16 18 mph 1013.4mb 77f 78f
9:50pm 3ft 4s 4s 16 18 mph 1013.3mb 77f 79f
8:50pm 3.5ft 4s 4s 20 22 mph 1012.7mb 77f 79f
7:50pm 3ft 4s 4s 20 25 mph 1012.4mb 78f 79f
6:50pm 3ft 3s 4s 22 27 mph 1012.3mb 78f 80f
5:50pm 2.5ft 11s 4s 18 20 mph 1012.9mb 78f 80f
4:50pm 2.5ft 7s 4s 18 20 mph 1013.2mb 78f 80f
3:50pm 2ft 7s 4s 16 18 mph 1013.7mb 78f 80f
2:50pm 2.5ft 7s 5s 13 16 mph 1014.3mb 78f 80f
1:50pm 2ft 7s 5s 11 13 mph 1014.9mb 78f 79f
12:50pm 2ft 7s 6s 9 11 mph 1015mb 78f 79f
11:50am 2ft 7s 6s 7
mph
1015.2mb 78f 78f
10:50am 2ft 6s 6s 7
mph
1015.4mb 77f 78f
9:50am 2ft 7s 6s 4
mph
1015.3mb 77f 77f
8:50am 2ft 7s 6s 7 9 mph 1014.9mb 76f 76f
7:50am 2ft 8s 6s 7 9 mph 1014.8mb 76f 76f
6:50am 2ft 11s 6s 7
mph
1014.5mb 76f 76f
5:50am 2ft 7s 5s 7
mph
1014.3mb 76f 75f
4:50am 2ft 8s 5s 7 9 mph 1013.7mb 76f 76f
3:50am 2ft 8s 5s 7 9 mph 1013.9mb 76f 76f
2:50am 2ft 8s 5s 9 11 mph 1014.1mb 76f 76f
1:50am 2.5ft 8s 5s 9 11 mph 1014.8mb 76f 77f
12:50am 2.5ft 11s 5s 13 16 mph 1014.8mb 76f 77f
Tue 07/28 11:50pm 2.5ft 9s 5s 11
mph
1014.8mb 77f 78f
10:50pm 2.5ft 6s 5s 11 13 mph 1014.9mb 77f 78f
9:50pm 2ft 11s 5s 11 13 mph 1014.8mb 76f 78f
8:50pm 2.5ft 11s 5s 11 13 mph 1014.1mb 76f 78f
7:50pm 2.5ft 6s 4s 11 13 mph 1013.9mb 76f 78f
6:50pm 2.5ft 11s 4s 16
mph
1013.4mb 77f 78f
5:50pm 2.5ft 8s 4s 13 16 mph 1013.7mb 77f 78f
4:50pm 2.5ft 6s 5s 13
mph
1013.9mb 77f 78f